createdAt,value
2019-01-31T06:22:29.264Z,3
2019-01-31T06:28:59.667Z,7
2019-01-31T06:31:59.833Z,10
2019-01-31T06:33:59.930Z,13
2019-01-31T06:35:30.145Z,17
2019-01-31T06:37:00.141Z,20
2019-01-31T06:38:00.186Z,23
2019-01-31T06:38:30.187Z,27
2019-01-31T06:39:30.261Z,30
2019-01-31T06:40:01.605Z,33
2019-01-31T06:40:30.318Z,37
2019-01-31T06:41:02.090Z,40
2019-01-31T06:41:30.357Z,43
2019-01-31T06:42:01.625Z,47
2019-01-31T06:42:30.441Z,50
2019-01-31T06:43:01.089Z,53
2019-01-31T06:43:30.521Z,57
2019-01-31T06:44:01.097Z,63
2019-01-31T06:44:30.582Z,67
2019-01-31T06:45:00.724Z,70
2019-01-31T06:45:30.642Z,77
2019-01-31T06:46:00.696Z,80
2019-01-31T06:46:30.689Z,87
2019-01-31T06:47:01.426Z,93
2019-01-31T06:47:30.767Z,100
2019-01-31T06:48:00.807Z,107
2019-01-31T06:48:32.058Z,113
2019-01-31T06:49:01.021Z,120
2019-01-31T06:49:30.831Z,127
2019-01-31T06:50:01.040Z,137
2019-01-31T06:50:30.958Z,143
2019-01-31T06:51:01.030Z,153
2019-01-31T06:51:30.956Z,163
2019-01-31T06:52:01.061Z,173
2019-01-31T06:52:31.013Z,183
2019-01-31T06:53:01.250Z,193
2019-01-31T06:53:31.074Z,203
2019-01-31T06:54:01.108Z,213
2019-01-31T06:54:31.189Z,223
2019-01-31T06:55:01.196Z,237
2019-01-31T06:55:31.201Z,250
2019-01-31T06:56:01.306Z,263
2019-01-31T06:56:31.344Z,277
2019-01-31T06:57:01.619Z,290
2019-01-31T06:57:31.352Z,307
2019-01-31T06:58:01.371Z,323
2019-01-31T06:58:31.473Z,340
2019-01-31T06:59:01.415Z,357
2019-01-31T06:59:31.478Z,380
2019-01-31T07:00:01.483Z,397
2019-01-31T07:00:31.525Z,410
2019-01-31T07:01:01.666Z,420
2019-01-31T07:01:31.606Z,430
2019-01-31T07:02:01.672Z,443
2019-01-31T07:02:31.631Z,457
2019-01-31T07:03:01.730Z,473
2019-01-31T07:03:31.705Z,490
2019-01-31T07:04:01.776Z,510
2019-01-31T07:04:31.785Z,527
2019-01-31T07:05:01.922Z,543
2019-01-31T07:05:31.871Z,560
2019-01-31T07:06:01.849Z,577
2019-01-31T07:06:31.920Z,593
2019-01-31T07:07:02.030Z,613
2019-01-31T07:07:31.932Z,633
2019-01-31T07:08:04.490Z,650
2019-01-31T07:08:32.007Z,677
2019-01-31T07:09:02.076Z,707
2019-01-31T07:09:32.065Z,740
2019-01-31T07:10:02.096Z,780
2019-01-31T07:10:32.160Z,823
2019-01-31T07:11:02.151Z,867
2019-01-31T07:11:34.817Z,913
2019-01-31T07:12:02.213Z,963
2019-01-31T07:12:32.268Z,1023
2019-01-31T07:13:02.271Z,1090
2019-01-31T07:13:33.909Z,1173
2019-01-31T07:14:02.370Z,1253
2019-01-31T07:14:32.367Z,1313
2019-01-31T07:15:02.409Z,1350
2019-01-31T07:15:32.464Z,1370
2019-01-31T07:16:02.526Z,1380
2019-01-31T07:16:32.493Z,1387
2019-01-31T07:17:02.517Z,1400
2019-01-31T07:17:32.596Z,1417
2019-01-31T07:18:02.613Z,1437
2019-01-31T07:18:32.650Z,1460
2019-01-31T07:19:02.718Z,1487
2019-01-31T07:19:32.733Z,1510
2019-01-31T07:20:02.741Z,1533
2019-01-31T07:20:32.844Z,1560
2019-01-31T07:21:02.789Z,1590
2019-01-31T07:21:32.882Z,1623
2019-01-31T07:22:02.890Z,1650
2019-01-31T07:22:32.924Z,1677
2019-01-31T07:23:02.991Z,1700
2019-01-31T07:23:33.002Z,1710
2019-01-31T07:24:03.018Z,1730
2019-01-31T07:24:33.031Z,1753
2019-01-31T07:25:03.044Z,1773
2019-01-31T07:25:33.086Z,1793
2019-01-31T07:26:03.131Z,1827
2019-01-31T07:26:33.193Z,1867
2019-01-31T07:27:03.174Z,1903
2019-01-31T07:27:33.160Z,1937
2019-01-31T07:28:03.218Z,1977
2019-01-31T07:28:33.221Z,2013
2019-01-31T07:29:03.290Z,2043
2019-01-31T07:29:33.319Z,2077
2019-01-31T07:30:03.347Z,2110
2019-01-31T07:30:33.412Z,2140
2019-01-31T07:31:03.407Z,2173
2019-01-31T07:31:33.474Z,2207
2019-01-31T07:32:03.746Z,2243
2019-01-31T07:32:33.557Z,2273
2019-01-31T07:33:03.564Z,2307
2019-01-31T07:33:33.582Z,2340
2019-01-31T07:34:03.599Z,2370
2019-01-31T07:34:33.619Z,2403
2019-01-31T07:35:03.654Z,2437
2019-01-31T07:35:33.741Z,2473
2019-01-31T07:36:03.733Z,2510
2019-01-31T07:36:33.844Z,2543
2019-01-31T07:37:03.745Z,2570
2019-01-31T07:37:33.824Z,2600
2019-01-31T07:38:03.839Z,2627
2019-01-31T07:38:33.886Z,2653
2019-01-31T07:39:03.871Z,2727
2019-01-31T07:39:33.944Z,2983
2019-01-31T07:40:03.968Z,3343
2019-01-31T07:40:34.014Z,3687
2019-01-31T07:41:04.022Z,3890
2019-01-31T07:41:40.850Z,3913
2019-01-31T07:42:04.083Z,3907
2019-01-31T07:42:34.079Z,3950
2019-01-31T07:43:04.152Z,4027
2019-01-31T07:43:34.208Z,4093
2019-01-31T07:44:04.232Z,4133
2019-01-31T07:44:34.300Z,4120
2019-01-31T07:45:04.329Z,4130
2019-01-31T07:45:34.299Z,4220
2019-01-31T07:46:04.321Z,4307
2019-01-31T07:46:34.355Z,4353
2019-01-31T07:47:04.388Z,4390
2019-01-31T07:47:36.695Z,4423
2019-01-31T07:48:04.426Z,4467
2019-01-31T07:48:34.470Z,4533
2019-01-31T07:49:04.521Z,4583
2019-01-31T07:49:36.605Z,4577
2019-01-31T07:50:04.608Z,4670
2019-01-31T07:50:34.645Z,4813
2019-01-31T07:51:04.660Z,4873
2019-01-31T07:51:34.694Z,4830
2019-01-31T07:52:04.685Z,4983
2019-01-31T07:52:34.720Z,5050
2019-01-31T07:53:04.759Z,5107
2019-01-31T07:53:34.805Z,5060
2019-01-31T07:54:04.797Z,4893
2019-01-31T07:54:34.840Z,4883
2019-01-31T07:55:04.924Z,4907
2019-01-31T07:55:34.896Z,4970
2019-01-31T07:56:04.956Z,5267
2019-01-31T07:56:34.940Z,5533
2019-01-31T07:57:04.979Z,5830
2019-01-31T07:57:35.003Z,6087
2019-01-31T07:58:05.041Z,6297
2019-01-31T07:58:35.069Z,6310
2019-01-31T07:59:05.100Z,6203
2019-01-31T07:59:35.124Z,5813
2019-01-31T08:00:05.231Z,5470
2019-01-31T08:00:35.251Z,5503
2019-01-31T08:01:05.251Z,5557
2019-01-31T08:01:35.256Z,5797
2019-01-31T08:02:05.327Z,6007
2019-01-31T08:03:05.414Z,5727
2019-01-31T08:03:35.501Z,5527
2019-01-31T08:04:05.446Z,5400
2019-01-31T08:04:35.476Z,5490
2019-01-31T08:05:05.560Z,5760
2019-01-31T08:05:35.918Z,5957
2019-01-31T08:06:05.566Z,5707
2019-01-31T08:06:35.602Z,5310
2019-01-31T08:07:35.623Z,5660
2019-01-31T08:08:05.706Z,6227
2019-01-31T08:08:35.731Z,6523
2019-01-31T08:09:05.737Z,6613
2019-01-31T08:09:35.802Z,6440
2019-01-31T08:10:05.877Z,6460
2019-01-31T08:10:35.843Z,6517
2019-01-31T08:11:05.934Z,6383
2019-01-31T08:11:35.892Z,6380
2019-01-31T08:12:05.921Z,6433
2019-01-31T08:12:35.959Z,6647
2019-01-31T08:13:06.011Z,6747
2019-01-31T08:13:36.016Z,6920
2019-01-31T08:14:06.073Z,7127
2019-01-31T08:14:36.076Z,7080
2019-01-31T08:15:07.739Z,7113
2019-01-31T08:15:36.142Z,7200
2019-01-31T08:16:06.192Z,7310
2019-01-31T08:16:36.210Z,7370
2019-01-31T08:17:06.471Z,7240
2019-01-31T08:17:36.279Z,7040
2019-01-31T08:18:06.310Z,6840
2019-01-31T08:18:36.329Z,7253
2019-01-31T08:19:06.328Z,7843
2019-01-31T08:19:36.404Z,8530
2019-01-31T08:20:06.503Z,9117
2019-01-31T08:20:36.449Z,9503
2019-01-31T08:21:06.515Z,9880
2019-01-31T08:21:36.533Z,10160
2019-01-31T08:22:06.555Z,10433
2019-01-31T08:22:36.583Z,10377
2019-01-31T08:23:06.619Z,10043
2019-01-31T08:23:36.644Z,9467
2019-01-31T08:24:09.322Z,9143
2019-01-31T08:24:36.669Z,9387
2019-01-31T08:25:06.776Z,9477
2019-01-31T08:25:36.764Z,9490
2019-01-31T08:26:06.791Z,9710
2019-01-31T08:26:36.815Z,9927
2019-01-31T08:27:06.856Z,10453
2019-01-31T08:27:36.874Z,10667
2019-01-31T08:28:06.892Z,10837
2019-01-31T08:28:36.939Z,11003
2019-01-31T08:29:06.982Z,11223
2019-01-31T08:29:37.008Z,11427
2019-01-31T08:30:07.065Z,11653
2019-01-31T08:30:37.819Z,11793
2019-01-31T08:31:07.077Z,11573
2019-01-31T08:31:37.139Z,11480
2019-01-31T08:32:07.159Z,11307
2019-01-31T08:32:37.183Z,11170
2019-01-31T08:33:07.249Z,11110
2019-01-31T08:33:37.265Z,10647
2019-01-31T08:34:07.290Z,9670
2019-01-31T08:34:37.337Z,9483
2019-01-31T08:35:07.375Z,9567
2019-01-31T08:35:37.386Z,9447
2019-01-31T08:36:07.389Z,8703
2019-01-31T08:36:37.448Z,8667
2019-01-31T08:37:07.470Z,9770
2019-01-31T08:37:37.600Z,10537
2019-01-31T08:38:07.511Z,10583
2019-01-31T08:38:37.527Z,10820
2019-01-31T08:39:07.604Z,11240
2019-01-31T08:39:37.588Z,11673
2019-01-31T08:40:07.634Z,11937
2019-01-31T08:40:37.648Z,12117
2019-01-31T08:41:07.743Z,12197
2019-01-31T08:41:37.726Z,12287
2019-01-31T08:42:07.751Z,12367
2019-01-31T08:42:37.777Z,12563
2019-01-31T08:43:07.801Z,12920
2019-01-31T08:43:37.879Z,13130
2019-01-31T08:44:07.886Z,13733
2019-01-31T08:44:37.954Z,13863
2019-01-31T08:45:07.928Z,13930
2019-01-31T08:45:38.008Z,13997
2019-01-31T08:46:07.991Z,14047
2019-01-31T08:46:38.036Z,14093
2019-01-31T08:47:08.068Z,14163
2019-01-31T08:47:38.080Z,14247
2019-01-31T08:48:08.153Z,14273
2019-01-31T08:48:38.139Z,14343
2019-01-31T08:49:08.201Z,14400
2019-01-31T08:49:38.231Z,14447
2019-01-31T08:50:08.311Z,14480
2019-01-31T08:50:38.312Z,14567
2019-01-31T08:51:08.335Z,14630
2019-01-31T08:51:38.370Z,14697
2019-01-31T08:52:08.355Z,14793
2019-01-31T08:52:38.428Z,14863
2019-01-31T08:53:08.501Z,14927
2019-01-31T08:53:38.500Z,14997
2019-01-31T08:54:08.498Z,15067
2019-01-31T08:54:38.564Z,15127
2019-01-31T08:55:08.543Z,15200
2019-01-31T08:55:38.568Z,15287
2019-01-31T08:56:08.630Z,15333
2019-01-31T08:56:38.689Z,15397
2019-01-31T08:57:08.734Z,15457
2019-01-31T08:57:38.759Z,15500
2019-01-31T08:58:08.743Z,15543
2019-01-31T08:58:38.811Z,15447
2019-01-31T08:59:08.835Z,14293
2019-01-31T08:59:38.819Z,13710
2019-01-31T09:00:08.871Z,13820
2019-01-31T09:00:38.887Z,14867
2019-01-31T09:01:09.121Z,15540
2019-01-31T09:01:38.987Z,16023
2019-01-31T09:02:09.035Z,16067
2019-01-31T09:02:39.047Z,16153
2019-01-31T09:03:09.311Z,16220
2019-01-31T09:03:39.077Z,16263
2019-01-31T09:04:09.111Z,16233
2019-01-31T09:04:39.170Z,15807
2019-01-31T09:05:09.186Z,15677
2019-01-31T09:05:39.269Z,15760
2019-01-31T09:06:09.287Z,16083
2019-01-31T09:06:39.249Z,16537
2019-01-31T09:07:09.281Z,16573
2019-01-31T09:07:39.353Z,16627
2019-01-31T09:08:09.370Z,16657
2019-01-31T09:08:39.416Z,16687
2019-01-31T09:09:09.471Z,16600
2019-01-31T09:09:39.493Z,16247
2019-01-31T09:10:09.485Z,15987
2019-01-31T09:10:39.541Z,15957
2019-01-31T09:11:09.546Z,16073
2019-01-31T09:11:39.614Z,16307
2019-01-31T09:12:15.140Z,16867
2019-01-31T09:12:39.638Z,17117
2019-01-31T09:13:09.710Z,17207
2019-01-31T09:13:39.722Z,17303
2019-01-31T09:14:09.730Z,17400
2019-01-31T09:14:39.787Z,17433
2019-01-31T09:15:09.849Z,17483
2019-01-31T09:15:39.841Z,16800
2019-01-31T09:16:09.958Z,15500
2019-01-31T09:16:39.860Z,15243
2019-01-31T09:17:09.977Z,15730
2019-01-31T09:17:39.966Z,17323
2019-01-31T09:18:09.976Z,17630
2019-01-31T09:18:40.033Z,17293
2019-01-31T09:19:10.087Z,15757
2019-01-31T09:19:40.115Z,15070
2019-01-31T09:20:10.129Z,15100
2019-01-31T09:20:40.182Z,16027
2019-01-31T09:21:10.369Z,17410
2019-01-31T09:21:40.224Z,18140
2019-01-31T09:22:10.230Z,18200
2019-01-31T09:22:40.322Z,18273
2019-01-31T09:23:10.262Z,18370
2019-01-31T09:23:40.305Z,18463
2019-01-31T09:24:10.380Z,18563
2019-01-31T09:24:41.578Z,18627
2019-01-31T09:25:10.457Z,18690
2019-01-31T09:25:40.435Z,18727
2019-01-31T09:26:10.466Z,18800
2019-01-31T09:26:40.520Z,18883
2019-01-31T09:27:10.504Z,18943
2019-01-31T09:27:40.576Z,18963
2019-01-31T09:28:10.595Z,19053
2019-01-31T09:28:40.621Z,19070
2019-01-31T09:29:10.633Z,18147
2019-01-31T09:29:40.703Z,17663
2019-01-31T09:30:10.714Z,16893
2019-01-31T09:30:40.723Z,16980
2019-01-31T09:31:10.753Z,17847
2019-01-31T09:31:40.807Z,18100
2019-01-31T09:32:10.813Z,17953
2019-01-31T09:32:40.862Z,17270
2019-01-31T09:33:10.875Z,16673
2019-01-31T09:33:40.930Z,17037
2019-01-31T09:34:10.948Z,18070
2019-01-31T09:34:41.005Z,19517
2019-01-31T09:35:11.075Z,19737
2019-01-31T09:35:41.105Z,19227
2019-01-31T09:36:11.064Z,17857
2019-01-31T09:36:41.145Z,17457
2019-01-31T09:37:11.128Z,17773
2019-01-31T09:37:41.206Z,18977
2019-01-31T09:38:11.219Z,20040
2019-01-31T09:38:41.255Z,18473
2019-01-31T09:39:11.274Z,17283
2019-01-31T09:39:41.333Z,16683
2019-01-31T09:40:11.302Z,16753
2019-01-31T09:40:41.366Z,18020
2019-01-31T09:41:11.408Z,18783
2019-01-31T09:41:41.442Z,19083
2019-01-31T09:42:11.703Z,19493
2019-01-31T09:42:41.499Z,19460
2019-01-31T09:43:11.541Z,18263
2019-01-31T09:43:41.574Z,17133
2019-01-31T09:44:11.602Z,16103
2019-01-31T09:44:41.650Z,16223
2019-01-31T09:45:11.612Z,16540
2019-01-31T09:45:41.695Z,16577
2019-01-31T09:46:11.727Z,17430
2019-01-31T09:46:41.759Z,18700
2019-01-31T09:47:11.781Z,20020
2019-01-31T09:47:41.942Z,20597
2019-01-31T09:48:11.797Z,20727
2019-01-31T09:48:41.921Z,21013
2019-01-31T09:49:11.896Z,21180
2019-01-31T09:49:41.900Z,21210
2019-01-31T09:50:11.957Z,21283
2019-01-31T09:50:41.999Z,21353
2019-01-31T09:51:12.015Z,21363
2019-01-31T09:51:42.064Z,21460
2019-01-31T09:52:12.081Z,21500
2019-01-31T09:52:42.183Z,21520
2019-01-31T09:53:12.179Z,21620
2019-01-31T09:53:42.184Z,21713
2019-01-31T09:54:12.201Z,21817
2019-01-31T09:54:42.280Z,21877
2019-01-31T09:55:12.290Z,21887
2019-01-31T09:55:42.312Z,21937
2019-01-31T09:56:12.325Z,21963
2019-01-31T09:56:42.391Z,22007
2019-01-31T09:57:12.387Z,21593
2019-01-31T09:57:42.458Z,20997
2019-01-31T09:58:12.429Z,21017
2019-01-31T09:58:42.506Z,21287
2019-01-31T09:59:12.520Z,21903
2019-01-31T09:59:42.552Z,22283
2019-01-31T10:00:12.541Z,22363
2019-01-31T10:00:42.673Z,21983
2019-01-31T10:01:12.631Z,20517
2019-01-31T10:01:42.719Z,20017
2019-01-31T10:02:12.694Z,20110
2019-01-31T10:02:42.761Z,20850
2019-01-31T10:03:12.808Z,22387
2019-01-31T10:03:42.788Z,22553
2019-01-31T10:04:12.878Z,22677
2019-01-31T10:04:42.863Z,22753
2019-01-31T10:05:12.887Z,22793
2019-01-31T10:05:42.974Z,22870
2019-01-31T10:06:12.972Z,22893
2019-01-31T10:06:42.975Z,22970
2019-01-31T10:07:13.078Z,23020
2019-01-31T10:07:43.135Z,23067
2019-01-31T10:08:13.119Z,23123
2019-01-31T10:08:43.109Z,23043
2019-01-31T10:09:15.761Z,22220
2019-01-31T10:09:43.185Z,20613
2019-01-31T10:10:13.253Z,19833
2019-01-31T10:10:43.290Z,19743
2019-01-31T10:11:13.362Z,21927
2019-01-31T10:11:43.314Z,22573
2019-01-31T10:12:13.326Z,22690
2019-01-31T10:12:43.478Z,23283
2019-01-31T10:13:13.471Z,23477
2019-01-31T10:13:43.421Z,23567
2019-01-31T10:14:13.430Z,23627
2019-01-31T10:14:43.530Z,23567
2019-01-31T10:15:13.505Z,23660
2019-01-31T10:15:43.568Z,23713
2019-01-31T10:16:43.587Z,23650
2019-01-31T10:17:13.601Z,23643
2019-01-31T10:17:43.749Z,23657
2019-01-31T10:18:13.706Z,23330
2019-01-31T10:18:43.828Z,22590
2019-01-31T10:19:13.753Z,22473
2019-01-31T10:19:43.773Z,22697
2019-01-31T10:20:13.939Z,23067
2019-01-31T10:20:43.825Z,23523
2019-01-31T10:21:13.920Z,23770
2019-01-31T10:21:43.908Z,23780
2019-01-31T10:22:13.897Z,23873
2019-01-31T10:22:43.974Z,23987
2019-01-31T10:23:13.998Z,24143
2019-01-31T10:23:44.086Z,24240
2019-01-31T10:24:44.164Z,24307
2019-01-31T10:25:14.108Z,24370
2019-01-31T10:25:44.245Z,24403
2019-01-31T10:26:14.175Z,24400
2019-01-31T10:26:44.222Z,24487
2019-01-31T10:27:14.226Z,24513
2019-01-31T10:27:44.302Z,24507
2019-01-31T10:28:14.301Z,24510
2019-01-31T10:28:44.383Z,24493
2019-01-31T10:29:14.325Z,24523
2019-01-31T10:29:44.389Z,24567
2019-01-31T10:30:14.970Z,24603
2019-01-31T10:30:44.463Z,24643
2019-01-31T10:31:14.497Z,24683
2019-01-31T10:32:14.562Z,24710
2019-01-31T10:32:44.623Z,24730
2019-01-31T10:33:14.607Z,24713
2019-01-31T10:33:44.663Z,24770
2019-01-31T10:34:14.927Z,24757
2019-01-31T10:34:44.693Z,24747
2019-01-31T10:35:14.740Z,24720
2019-01-31T10:35:44.722Z,24787
2019-01-31T10:36:14.803Z,24793
2019-01-31T10:36:44.831Z,24847
2019-01-31T10:37:14.883Z,24863
2019-01-31T10:37:44.947Z,24950
2019-01-31T10:38:14.933Z,24953
2019-01-31T10:38:44.954Z,24993
2019-01-31T10:39:14.943Z,25027
2019-01-31T10:39:45.015Z,25083
2019-01-31T10:40:15.092Z,25113
2019-01-31T10:40:45.097Z,25133
2019-01-31T10:41:45.110Z,25190
2019-01-31T10:42:15.147Z,25217
2019-01-31T10:42:50.471Z,25253
2019-01-31T10:43:15.454Z,25230
2019-01-31T10:43:45.240Z,25250
2019-01-31T10:44:15.279Z,25283
2019-01-31T10:44:45.302Z,25280
2019-01-31T10:45:15.369Z,25290
2019-01-31T10:45:45.372Z,25377
2019-01-31T10:46:15.425Z,25413
2019-01-31T10:46:45.446Z,25453
2019-01-31T10:47:15.729Z,25450
2019-01-31T10:47:45.546Z,25507
2019-01-31T10:48:15.526Z,25553
2019-01-31T10:48:45.544Z,25647
2019-01-31T10:49:15.588Z,25610
2019-01-31T10:49:45.616Z,25597
2019-01-31T10:50:15.706Z,25587
2019-01-31T10:50:45.650Z,25603
2019-01-31T10:51:15.709Z,25490
2019-01-31T10:51:45.800Z,25427
2019-01-31T10:52:15.739Z,25537
2019-01-31T10:52:45.838Z,25503
2019-01-31T10:53:15.863Z,25547
2019-01-31T10:53:45.860Z,25493
2019-01-31T10:54:15.950Z,25600
2019-01-31T10:54:45.950Z,25583
2019-01-31T10:55:16.003Z,25560
2019-01-31T10:55:45.954Z,25517
2019-01-31T10:56:16.267Z,25593
2019-01-31T10:56:46.082Z,25477
2019-01-31T10:57:16.098Z,25603
2019-01-31T10:57:46.175Z,25570
2019-01-31T10:58:16.186Z,25720
2019-01-31T10:58:46.199Z,25580
2019-01-31T10:59:16.221Z,25667
2019-01-31T10:59:46.214Z,25603
2019-01-31T11:00:16.285Z,25730
2019-01-31T11:00:46.309Z,25707
2019-01-31T11:01:16.385Z,25703
2019-01-31T11:01:46.345Z,25797
2019-01-31T11:02:16.414Z,25827
2019-01-31T11:02:47.894Z,25770
2019-01-31T11:03:16.443Z,25783
2019-01-31T11:03:46.493Z,25903
2019-01-31T11:04:16.575Z,25937
2019-01-31T11:04:46.534Z,25980
2019-01-31T11:05:16.549Z,26023
2019-01-31T11:05:46.619Z,26047
2019-01-31T11:06:16.616Z,26033
2019-01-31T11:06:46.661Z,25977
2019-01-31T11:07:16.669Z,25943
2019-01-31T11:07:46.722Z,26070
2019-01-31T11:08:16.779Z,26087
2019-01-31T11:08:46.779Z,26067
2019-01-31T11:09:16.785Z,26110
2019-01-31T11:09:46.846Z,26047
2019-01-31T11:10:46.903Z,25997
2019-01-31T11:11:16.910Z,25977
2019-01-31T11:11:46.940Z,25907
2019-01-31T11:12:16.971Z,25910
2019-01-31T11:12:47.032Z,26043
2019-01-31T11:13:17.055Z,25973
2019-01-31T11:13:47.071Z,25893
2019-01-31T11:14:17.118Z,25900
2019-01-31T11:14:47.164Z,26030
2019-01-31T11:15:17.202Z,25967
2019-01-31T11:15:47.212Z,25887
2019-01-31T11:16:17.262Z,25983
2019-01-31T11:16:47.264Z,26063
2019-01-31T11:17:17.305Z,26030
2019-01-31T11:17:47.401Z,26023
2019-01-31T11:18:47.418Z,26057
2019-01-31T11:19:17.404Z,26013
2019-01-31T11:19:47.479Z,25987
2019-01-31T11:20:17.517Z,25997
2019-01-31T11:20:47.599Z,25983
2019-01-31T11:21:17.578Z,26017
2019-01-31T11:21:47.621Z,26083
2019-01-31T11:22:17.611Z,25990
2019-01-31T11:22:47.738Z,26010
2019-01-31T11:23:17.688Z,25970
2019-01-31T11:23:47.753Z,26063
2019-01-31T11:24:17.708Z,26040
2019-01-31T11:24:47.798Z,26063
2019-01-31T11:25:17.815Z,26047
2019-01-31T11:25:47.849Z,26063
2019-01-31T11:26:17.868Z,26007
2019-01-31T11:26:47.919Z,26000
2019-01-31T11:27:17.932Z,26043
2019-01-31T11:27:48.005Z,26070
2019-01-31T11:28:18.008Z,26083
2019-01-31T11:28:48.056Z,26047
2019-01-31T11:29:18.065Z,26083
2019-01-31T11:29:48.109Z,25987
2019-01-31T11:30:18.121Z,26110
2019-01-31T11:30:48.191Z,25990
2019-01-31T11:31:18.174Z,25943
2019-01-31T11:31:48.228Z,26053
2019-01-31T11:32:18.243Z,26010
2019-01-31T11:32:48.351Z,26090
2019-01-31T11:33:18.322Z,25953
2019-01-31T11:33:48.299Z,25990
2019-01-31T11:34:18.482Z,25993
2019-01-31T11:34:48.357Z,26020
2019-01-31T11:35:48.505Z,26033
2019-01-31T11:36:18.470Z,26023
2019-01-31T11:36:48.544Z,25977
2019-01-31T11:37:18.552Z,25927
2019-01-31T11:37:48.566Z,25987
2019-01-31T11:38:18.612Z,25873
2019-01-31T11:38:48.648Z,25927
2019-01-31T11:39:18.684Z,25943
2019-01-31T11:39:48.823Z,25913
2019-01-31T11:40:18.736Z,25920
2019-01-31T11:41:18.807Z,25913
2019-01-31T11:42:18.852Z,25817
2019-01-31T11:42:48.902Z,25850
2019-01-31T11:43:18.904Z,25807
2019-01-31T11:43:48.913Z,25757
2019-01-31T11:44:18.990Z,25727
2019-01-31T11:44:49.027Z,25670
2019-01-31T11:45:19.043Z,25610
2019-01-31T11:45:49.081Z,25570
2019-01-31T11:46:19.098Z,25590
2019-01-31T11:46:49.127Z,25447
2019-01-31T11:47:19.191Z,25567
2019-01-31T11:47:49.276Z,25577
2019-01-31T11:48:19.257Z,25440
2019-01-31T11:48:49.274Z,25533
2019-01-31T11:49:19.299Z,25507
2019-01-31T11:49:49.944Z,25467
2019-01-31T11:50:19.344Z,25510
2019-01-31T11:50:49.419Z,25507
2019-01-31T11:51:19.413Z,25417
2019-01-31T11:51:49.432Z,25447
2019-01-31T11:52:19.453Z,25483
2019-01-31T11:52:49.560Z,25423
2019-01-31T11:53:19.544Z,25580
2019-01-31T11:53:49.552Z,25440
2019-01-31T11:54:19.592Z,25473
2019-01-31T11:54:49.602Z,25407
2019-01-31T11:55:19.633Z,25393
2019-01-31T11:55:49.668Z,25337
2019-01-31T11:56:19.677Z,25370
2019-01-31T11:56:49.786Z,25323
2019-01-31T11:57:19.755Z,25300
2019-01-31T11:57:49.802Z,25337
2019-01-31T11:58:19.822Z,25237
2019-01-31T11:58:49.859Z,25173
2019-01-31T11:59:19.860Z,25207
2019-01-31T11:59:49.907Z,25217
2019-01-31T12:00:19.956Z,25103
2019-01-31T12:00:52.751Z,25110
2019-01-31T12:01:20.030Z,25103
2019-01-31T12:01:50.047Z,25057
2019-01-31T12:02:20.071Z,25113
2019-01-31T12:02:54.856Z,24997
2019-01-31T12:03:20.133Z,25077
2019-01-31T12:03:50.327Z,24997
2019-01-31T12:04:20.222Z,24953
2019-01-31T12:04:50.268Z,25043
2019-01-31T12:05:20.294Z,23583
2019-01-31T12:05:50.311Z,20000
2019-01-31T12:06:20.325Z,15703
2019-01-31T12:06:50.363Z,11570
2019-01-31T12:07:20.360Z,8177
2019-01-31T12:07:50.511Z,6497
2019-01-31T12:08:20.419Z,6383
2019-01-31T12:08:50.487Z,6393
2019-01-31T12:09:20.534Z,6387
2019-01-31T12:09:50.560Z,6377
2019-01-31T12:10:50.631Z,6380
2019-01-31T12:11:20.665Z,6397
2019-01-31T12:11:50.728Z,6507
2019-01-31T12:12:20.670Z,7333
2019-01-31T12:12:50.770Z,8497
2019-01-31T12:13:23.432Z,9307
2019-01-31T12:13:50.816Z,9423
2019-01-31T12:14:20.793Z,10607
2019-01-31T12:14:50.892Z,14467
2019-01-31T12:15:20.855Z,18670
2019-01-31T12:15:50.916Z,22397
2019-01-31T12:16:20.961Z,24373
2019-01-31T12:16:50.996Z,24403
2019-01-31T12:17:21.040Z,24360
2019-01-31T12:17:51.110Z,24320
2019-01-31T12:18:21.094Z,24343
2019-01-31T12:18:51.076Z,24237
2019-01-31T12:19:21.163Z,24263
2019-01-31T12:19:51.178Z,24220
2019-01-31T12:20:21.207Z,24227
2019-01-31T12:20:51.251Z,24260
2019-01-31T12:21:21.268Z,24240
2019-01-31T12:21:51.315Z,24203
2019-01-31T12:22:21.326Z,24107
2019-01-31T12:22:51.406Z,24140
2019-01-31T12:23:21.388Z,24010
2019-01-31T12:23:51.420Z,24050
2019-01-31T12:24:21.453Z,24013
2019-01-31T12:24:51.536Z,23973
2019-01-31T12:25:21.508Z,23880
2019-01-31T12:25:51.531Z,23813
2019-01-31T12:26:21.534Z,23717
2019-01-31T12:26:51.595Z,23687
2019-01-31T12:27:21.680Z,23580
2019-01-31T12:27:51.730Z,23567
2019-01-31T12:28:21.658Z,23543
2019-01-31T12:28:51.710Z,23470
2019-01-31T12:29:21.720Z,23460
2019-01-31T12:29:51.769Z,23390
2019-01-31T12:30:21.817Z,23373
2019-01-31T12:30:51.845Z,23200
2019-01-31T12:31:21.876Z,23260
2019-01-31T12:31:51.934Z,23237
2019-01-31T12:32:21.949Z,23207
2019-01-31T12:32:51.986Z,23127
2019-01-31T12:33:22.006Z,23113
2019-01-31T12:33:52.043Z,23140
2019-01-31T12:34:22.032Z,23070
2019-01-31T12:34:52.115Z,22917
2019-01-31T12:35:22.238Z,22913
2019-01-31T12:35:52.162Z,22847
2019-01-31T12:36:22.158Z,22827
2019-01-31T12:36:52.216Z,22830
2019-01-31T12:37:22.209Z,22717
2019-01-31T12:37:52.333Z,22743
2019-01-31T12:38:22.319Z,22730
2019-01-31T12:38:54.830Z,22677
2019-01-31T12:39:22.364Z,22693
2019-01-31T12:39:52.414Z,22677
2019-01-31T12:40:22.434Z,22530
2019-01-31T12:40:52.614Z,22443
2019-01-31T12:41:22.490Z,22407
2019-01-31T12:41:52.541Z,22370
2019-01-31T12:42:22.523Z,22337
2019-01-31T12:42:52.664Z,22287
2019-01-31T12:43:33.773Z,22293
2019-01-31T12:43:52.618Z,22260
2019-01-31T12:44:22.680Z,22270
2019-01-31T12:44:52.717Z,22287
2019-01-31T12:45:22.741Z,22270
2019-01-31T12:45:52.729Z,22223
2019-01-31T12:46:22.860Z,22233
2019-01-31T12:46:52.843Z,22137
2019-01-31T12:47:22.842Z,22130
2019-01-31T12:47:52.916Z,22043
2019-01-31T12:48:22.892Z,22093
2019-01-31T12:48:52.918Z,22050
2019-01-31T12:49:22.949Z,22037
2019-01-31T12:50:23.044Z,21977
2019-01-31T12:50:53.060Z,21953
2019-01-31T12:51:23.068Z,21853
2019-01-31T12:51:53.122Z,21883
2019-01-31T12:52:23.157Z,21830
2019-01-31T12:52:53.202Z,21767
2019-01-31T12:53:23.223Z,21820
2019-01-31T12:53:53.274Z,21697
2019-01-31T12:54:23.295Z,21700
2019-01-31T12:54:53.375Z,21670
2019-01-31T12:55:23.390Z,21667
2019-01-31T12:55:53.365Z,21613
2019-01-31T12:56:23.409Z,21547
2019-01-31T12:56:53.465Z,21497
2019-01-31T12:57:23.470Z,21487
2019-01-31T12:57:53.566Z,21453
2019-01-31T12:58:33.242Z,21427
2019-01-31T12:58:53.618Z,21390
2019-01-31T12:59:23.600Z,21303
2019-01-31T12:59:53.597Z,21237
2019-01-31T13:00:23.649Z,21223
2019-01-31T13:00:53.695Z,21180
2019-01-31T13:01:23.717Z,21130
2019-01-31T13:01:53.776Z,21120
2019-01-31T13:02:23.771Z,21087
2019-01-31T13:02:53.805Z,20993
2019-01-31T13:03:23.834Z,20990
2019-01-31T13:03:53.908Z,20987
2019-01-31T13:04:23.903Z,20860
2019-01-31T13:04:53.975Z,20867
2019-01-31T13:05:24.052Z,20827
2019-01-31T13:05:54.004Z,20797
2019-01-31T13:06:24.018Z,20750
2019-01-31T13:06:54.116Z,20667
2019-01-31T13:07:24.081Z,20643
2019-01-31T13:07:54.149Z,20520
2019-01-31T13:08:24.201Z,20573
2019-01-31T13:08:54.149Z,20367
2019-01-31T13:09:24.230Z,20410
2019-01-31T13:09:54.261Z,20350
2019-01-31T13:10:24.282Z,20330
2019-01-31T13:10:54.270Z,20293
2019-01-31T13:11:24.389Z,20170
2019-01-31T13:11:54.334Z,20113
2019-01-31T13:12:54.446Z,20003
2019-01-31T13:13:24.427Z,19937
2019-01-31T13:13:54.453Z,19973
2019-01-31T13:14:24.552Z,19903